sensor_id;sensor_type;location;lat;lon;timestamp;pressure;altitude;pressure_sealevel;temperature;humidity
52535;BME280;38443;53.164;5.802;2023-08-06T00:00:27;100824.38;;;12.62;100.00
52535;BME280;38443;53.164;5.802;2023-08-06T00:02:53;100819.91;;;12.61;100.00
52535;BME280;38443;53.164;5.802;2023-08-06T00:05:18;100819.88;;;12.62;100.00
52535;BME280;38443;53.164;5.802;2023-08-06T00:07:49;100826.19;;;12.61;100.00
52535;BME280;38443;53.164;5.802;2023-08-06T00:10:14;100816.34;;;12.60;100.00
52535;BME280;38443;53.164;5.802;2023-08-06T00:12:40;100818.19;;;12.60;100.00
52535;BME280;38443;53.164;5.802;2023-08-06T00:15:06;100811.00;;;12.60;100.00
52535;BME280;38443;53.164;5.802;2023-08-06T00:17:33;100818.19;;;12.60;100.00
52535;BME280;38443;53.164;5.802;2023-08-06T00:19:58;100814.50;;;12.62;100.00
52535;BME280;38443;53.164;5.802;2023-08-06T00:22:29;100816.25;;;12.63;100.00
52535;BME280;38443;53.164;5.802;2023-08-06T00:24:54;100819.81;;;12.64;100.00
52535;BME280;38443;53.164;5.802;2023-08-06T00:27:22;100808.13;;;12.65;100.00
52535;BME280;38443;53.164;5.802;2023-08-06T00:29:48;100812.56;;;12.66;100.00
52535;BME280;38443;53.164;5.802;2023-08-06T00:32:13;100808.06;;;12.66;100.00
52535;BME280;38443;53.164;5.802;2023-08-06T00:34:38;100810.81;;;12.65;100.00
52535;BME280;38443;53.164;5.802;2023-08-06T00:37:03;100807.19;;;12.66;100.00
52535;BME280;38443;53.164;5.802;2023-08-06T00:39:29;100811.63;;;12.67;100.00
52535;BME280;38443;53.164;5.802;2023-08-06T00:41:54;100810.66;;;12.69;100.00
52535;BME280;38443;53.164;5.802;2023-08-06T00:44:20;100816.03;;;12.69;100.00
52535;BME280;38443;53.164;5.802;2023-08-06T00:46:45;100817.75;;;12.70;100.00
52535;BME280;38443;53.164;5.802;2023-08-06T00:49:10;100817.75;;;12.70;100.00
52535;BME280;38443;53.164;5.802;2023-08-06T00:51:36;100814.25;;;12.68;100.00
52535;BME280;38443;53.164;5.802;2023-08-06T00:54:02;100815.13;;;12.69;100.00
52535;BME280;38443;53.164;5.802;2023-08-06T00:56:28;100814.19;;;12.70;100.00
52535;BME280;38443;53.164;5.802;2023-08-06T00:58:54;100819.63;;;12.68;100.00
52535;BME280;38443;53.164;5.802;2023-08-06T01:01:20;100818.69;;;12.69;100.00
52535;BME280;38443;53.164;5.802;2023-08-06T01:03:46;100816.88;;;12.70;100.00
52535;BME280;38443;53.164;5.802;2023-08-06T01:06:11;100811.50;;;12.70;100.00
52535;BME280;38443;53.164;5.802;2023-08-06T01:11:36;100814.19;;;12.70;100.00
52535;BME280;38443;53.164;5.802;2023-08-06T01:14:13;100813.34;;;12.69;100.00
52535;BME280;38443;53.164;5.802;2023-08-06T01:16:41;100812.34;;;12.72;100.00
52535;BME280;38443;53.164;5.802;2023-08-06T01:19:19;100817.69;;;12.72;100.00
52535;BME280;38443;53.164;5.802;2023-08-06T01:21:44;100821.25;;;12.72;100.00
52535;BME280;38443;53.164;5.802;2023-08-06T01:24:10;100816.78;;;12.73;100.00
52535;BME280;38443;53.164;5.802;2023-08-06T01:26:46;100810.66;;;12.69;100.00
52535;BME280;38443;53.164;5.802;2023-08-06T01:29:30;100809.75;;;12.69;100.00
52535;BME280;38443;53.164;5.802;2023-08-06T01:31:57;100805.28;;;12.69;100.00
52535;BME280;38443;53.164;5.802;2023-08-06T01:34:25;100811.56;;;12.68;100.00
52535;BME280;38443;53.164;5.802;2023-08-06T01:36:52;100810.69;;;12.68;100.00
52535;BME280;38443;53.164;5.802;2023-08-06T01:39:18;100815.19;;;12.67;100.00
52535;BME280;38443;53.164;5.802;2023-08-06T01:41:47;100810.75;;;12.66;100.00
52535;BME280;38443;53.164;5.802;2023-08-06T01:44:12;100815.25;;;12.66;100.00
52535;BME280;38443;53.164;5.802;2023-08-06T01:46:37;100809.97;;;12.63;100.00
52535;BME280;38443;53.164;5.802;2023-08-06T01:49:03;100809.13;;;12.62;100.00
52535;BME280;38443;53.164;5.802;2023-08-06T01:51:28;100804.69;;;12.61;100.00
52535;BME280;38443;53.164;5.802;2023-08-06T01:53:53;100806.47;;;12.61;100.00
52535;BME280;38443;53.164;5.802;2023-08-06T01:56:19;100804.75;;;12.60;100.00
52535;BME280;38443;53.164;5.802;2023-08-06T01:58:44;100803.94;;;12.57;100.00
52535;BME280;38443;53.164;5.802;2023-08-06T02:01:09;100805.75;;;12.57;100.00
52535;BME280;38443;53.164;5.802;2023-08-06T02:03:35;100802.16;;;12.56;100.00
52535;BME280;38443;53.164;5.802;2023-08-06T02:06:00;100807.69;;;12.53;100.00
52535;BME280;38443;53.164;5.802;2023-08-06T02:08:27;100800.47;;;12.54;100.00
52535;BME280;38443;53.164;5.802;2023-08-06T02:10:52;100796.94;;;12.53;100.00
52535;BME280;38443;53.164;5.802;2023-08-06T02:13:18;100802.31;;;12.53;100.00
52535;BME280;38443;53.164;5.802;2023-08-06T02:15:45;100795.97;;;12.54;100.00
52535;BME280;38443;53.164;5.802;2023-08-06T02:18:13;100802.31;;;12.53;100.00
52535;BME280;38443;53.164;5.802;2023-08-06T02:20:40;100796.06;;;12.53;100.00
52535;BME280;38443;53.164;5.802;2023-08-06T02:23:05;100787.06;;;12.54;100.00
52535;BME280;38443;53.164;5.802;2023-08-06T02:25:30;100786.19;;;12.53;100.00
52535;BME280;38443;53.164;5.802;2023-08-06T02:27:55;100784.38;;;12.54;100.00
52535;BME280;38443;53.164;5.802;2023-08-06T02:30:21;100776.31;;;12.54;100.00
52535;BME280;38443;53.164;5.802;2023-08-06T02:32:46;100780.81;;;12.53;100.00
52535;BME280;38443;53.164;5.802;2023-08-06T02:35:12;100778.09;;;12.55;100.00
52535;BME280;38443;53.164;5.802;2023-08-06T02:37:37;100777.13;;;12.56;100.00
52535;BME280;38443;53.164;5.802;2023-08-06T02:40:03;100777.09;;;12.57;100.00
52535;BME280;38443;53.164;5.802;2023-08-06T02:42:28;100779.78;;;12.57;100.00
52535;BME280;38443;53.164;5.802;2023-08-06T02:44:54;100776.13;;;12.58;100.00
52535;BME280;38443;53.164;5.802;2023-08-06T02:47:22;100777.84;;;12.61;100.00
52535;BME280;38443;53.164;5.802;2023-08-06T02:49:48;100786.78;;;12.62;100.00
52535;BME280;38443;53.164;5.802;2023-08-06T02:52:13;100784.09;;;12.62;100.00
52535;BME280;38443;53.164;5.802;2023-08-06T02:54:38;100775.97;;;12.63;100.00
52535;BME280;38443;53.164;5.802;2023-08-06T02:57:05;100779.47;;;12.65;100.00
52535;BME280;38443;53.164;5.802;2023-08-06T02:59:31;100770.47;;;12.66;100.00
52535;BME280;38443;53.164;5.802;2023-08-06T03:01:56;100777.66;;;12.66;100.00
52535;BME280;38443;53.164;5.802;2023-08-06T03:04:21;100771.34;;;12.67;100.00
52535;BME280;38443;53.164;5.802;2023-08-06T03:06:49;100774.97;;;12.66;100.00
52535;BME280;38443;53.164;5.802;2023-08-06T03:09:14;100771.41;;;12.65;100.00
52535;BME280;38443;53.164;5.802;2023-08-06T03:11:39;100765.97;;;12.67;100.00
52535;BME280;38443;53.164;5.802;2023-08-06T03:14:05;100768.66;;;12.67;100.00
52535;BME280;38443;53.164;5.802;2023-08-06T03:16:30;100770.41;;;12.68;100.00
52535;BME280;38443;53.164;5.802;2023-08-06T03:18:55;100760.69;;;12.65;100.00
52535;BME280;38443;53.164;5.802;2023-08-06T03:21:21;100764.22;;;12.66;100.00
52535;BME280;38443;53.164;5.802;2023-08-06T03:23:47;100760.72;;;12.64;100.00
52535;BME280;38443;53.164;5.802;2023-08-06T03:26:12;100764.34;;;12.63;100.00
52535;BME280;38443;53.164;5.802;2023-08-06T03:28:38;100761.66;;;12.63;100.00
52535;BME280;38443;53.164;5.802;2023-08-06T03:31:03;100758.16;;;12.61;100.00
52535;BME280;38443;53.164;5.802;2023-08-06T03:33:29;100762.59;;;12.62;100.00
52535;BME280;38443;53.164;5.802;2023-08-06T03:35:55;100747.34;;;12.62;100.00
52535;BME280;38443;53.164;5.802;2023-08-06T03:38:20;100754.53;;;12.62;100.00
52535;BME280;38443;53.164;5.802;2023-08-06T03:40:46;100758.16;;;12.61;100.00
52535;BME280;38443;53.164;5.802;2023-08-06T03:43:11;100758.16;;;12.61;100.00
52535;BME280;38443;53.164;5.802;2023-08-06T03:45:37;100759.97;;;12.60;100.00
52535;BME280;38443;53.164;5.802;2023-08-06T03:48:02;100762.72;;;12.58;100.00
52535;BME280;38443;53.164;5.802;2023-08-06T03:50:28;100758.28;;;12.57;100.00
52535;BME280;38443;53.164;5.802;2023-08-06T03:52:53;100758.34;;;12.56;100.00
52535;BME280;38443;53.164;5.802;2023-08-06T03:55:18;100761.97;;;12.55;100.00
52535;BME280;38443;53.164;5.802;2023-08-06T03:57:44;100765.63;;;12.52;100.00
52535;BME280;38443;53.164;5.802;2023-08-06T04:00:09;100770.19;;;12.50;100.00
52535;BME280;38443;53.164;5.802;2023-08-06T04:02:35;100772.88;;;12.50;100.00
52535;BME280;38443;53.164;5.802;2023-08-06T04:05:00;100756.84;;;12.49;100.00
52535;BME280;38443;53.164;5.802;2023-08-06T04:07:26;100761.44;;;12.45;100.00
52535;BME280;38443;53.164;5.802;2023-08-06T04:09:58;100759.69;;;12.44;100.00
52535;BME280;38443;53.164;5.802;2023-08-06T04:12:23;100761.50;;;12.44;100.00
52535;BME280;38443;53.164;5.802;2023-08-06T04:14:50;100765.19;;;12.41;100.00
52535;BME280;38443;53.164;5.802;2023-08-06T04:17:17;100759.06;;;12.37;100.00
52535;BME280;38443;53.164;5.802;2023-08-06T04:19:46;100750.19;;;12.35;100.00
52535;BME280;38443;53.164;5.802;2023-08-06T04:22:11;100764.47;;;12.36;100.00
52535;BME280;38443;53.164;5.802;2023-08-06T04:24:37;100754.75;;;12.33;100.00
52535;BME280;38443;53.164;5.802;2023-08-06T04:27:02;100758.28;;;12.34;100.00
52535;BME280;38443;53.164;5.802;2023-08-06T04:29:28;100767.22;;;12.34;100.00
52535;BME280;38443;53.164;5.802;2023-08-06T04:31:53;100764.53;;;12.34;100.00
52535;BME280;38443;53.164;5.802;2023-08-06T04:34:18;100767.16;;;12.36;100.00
52535;BME280;38443;53.164;5.802;2023-08-06T04:36:44;100768.03;;;12.36;100.00
52535;BME280;38443;53.164;5.802;2023-08-06T04:39:09;100766.09;;;12.40;100.00
52535;BME280;38443;53.164;5.802;2023-08-06T04:41:34;100771.38;;;12.43;100.00
52535;BME280;38443;53.164;5.802;2023-08-06T04:44:00;100769.41;;;12.47;100.00
52535;BME280;38443;53.164;5.802;2023-08-06T04:46:25;100769.28;;;12.51;100.00
52535;BME280;38443;53.164;5.802;2023-08-06T04:48:50;100768.25;;;12.54;100.00
52535;BME280;38443;53.164;5.802;2023-08-06T04:51:15;100769.94;;;12.56;100.00
52535;BME280;38443;53.164;5.802;2023-08-06T04:53:41;100774.34;;;12.59;100.00
52535;BME280;38443;53.164;5.802;2023-08-06T04:56:06;100761.78;;;12.60;100.00
52535;BME280;38443;53.164;5.802;2023-08-06T04:58:31;100770.53;;;12.65;100.00
52535;BME280;38443;53.164;5.802;2023-08-06T05:00:57;100778.53;;;12.66;100.00
52535;BME280;38443;53.164;5.802;2023-08-06T05:03:22;100776.66;;;12.68;100.00
52535;BME280;38443;53.164;5.802;2023-08-06T05:05:48;100777.53;;;12.69;100.00
52535;BME280;38443;53.164;5.802;2023-08-06T05:08:16;100777.41;;;12.72;100.00
52535;BME280;38443;53.164;5.802;2023-08-06T05:10:45;100781.78;;;12.74;100.00
52535;BME280;38443;53.164;5.802;2023-08-06T05:13:10;100787.09;;;12.76;100.00
52535;BME280;38443;53.164;5.802;2023-08-06T05:15:36;100785.22;;;12.78;100.00
52535;BME280;38443;53.164;5.802;2023-08-06T05:18:01;100779.75;;;12.81;100.00
52535;BME280;38443;53.164;5.802;2023-08-06T05:20:26;100776.06;;;12.84;100.00
52535;BME280;38443;53.164;5.802;2023-08-06T05:22:52;100775.88;;;12.88;100.00
52535;BME280;38443;53.164;5.802;2023-08-06T05:25:17;100776.56;;;12.93;100.00
52535;BME280;38443;53.164;5.802;2023-08-06T05:27:42;100773.63;;;13.00;100.00
52535;BME280;38443;53.164;5.802;2023-08-06T05:30:08;100780.56;;;13.05;100.00
52535;BME280;38443;53.164;5.802;2023-08-06T05:32:34;100779.38;;;13.12;100.00
52535;BME280;38443;53.164;5.802;2023-08-06T05:34:59;100779.06;;;13.20;100.00
52535;BME280;38443;53.164;5.802;2023-08-06T05:37:24;100784.00;;;13.31;100.00
52535;BME280;38443;53.164;5.802;2023-08-06T05:39:50;100775.63;;;13.39;100.00
52535;BME280;38443;53.164;5.802;2023-08-06T05:42:15;100790.63;;;13.44;100.00
52535;BME280;38443;53.164;5.802;2023-08-06T05:44:41;100785.97;;;13.49;100.00
52535;BME280;38443;53.164;5.802;2023-08-06T05:47:06;100789.19;;;13.57;100.00
52535;BME280;38443;53.164;5.802;2023-08-06T05:49:31;100794.25;;;13.65;100.00
52535;BME280;38443;53.164;5.802;2023-08-06T05:51:57;100794.03;;;13.70;100.00
52535;BME280;38443;53.164;5.802;2023-08-06T05:54:22;100798.41;;;13.72;100.00
52535;BME280;38443;53.164;5.802;2023-08-06T05:56:47;100803.66;;;13.75;100.00
52535;BME280;38443;53.164;5.802;2023-08-06T05:59:13;100800.88;;;13.77;100.00
52535;BME280;38443;53.164;5.802;2023-08-06T06:01:38;100801.72;;;13.79;100.00
52535;BME280;38443;53.164;5.802;2023-08-06T06:04:03;100792.63;;;13.82;100.00
52535;BME280;38443;53.164;5.802;2023-08-06T06:06:29;100799.47;;;13.89;100.00
52535;BME280;38443;53.164;5.802;2023-08-06T06:08:54;100793.69;;;13.98;100.00
52535;BME280;38443;53.164;5.802;2023-08-06T06:11:20;100800.69;;;14.02;100.00
52535;BME280;38443;53.164;5.802;2023-08-06T06:13:49;100801.09;;;14.13;100.00
52535;BME280;38443;53.164;5.802;2023-08-06T06:16:14;100800.66;;;14.23;100.00
52535;BME280;38443;53.164;5.802;2023-08-06T06:18:40;100804.63;;;14.34;100.00
52535;BME280;38443;53.164;5.802;2023-08-06T06:21:05;100803.13;;;14.48;100.00
52535;BME280;38443;53.164;5.802;2023-08-06T06:23:30;100795.91;;;14.48;100.00
52535;BME280;38443;53.164;5.802;2023-08-06T06:25:56;100794.56;;;14.59;100.00
52535;BME280;38443;53.164;5.802;2023-08-06T06:28:21;100796.63;;;14.72;100.00
52535;BME280;38443;53.164;5.802;2023-08-06T06:30:47;100796.75;;;14.88;100.00
52535;BME280;38443;53.164;5.802;2023-08-06T06:33:13;100804.03;;;15.05;100.00
52535;BME280;38443;53.164;5.802;2023-08-06T06:35:38;100793.16;;;15.26;100.00
52535;BME280;38443;53.164;5.802;2023-08-06T06:38:03;100796.91;;;15.58;100.00
52535;BME280;38443;53.164;5.802;2023-08-06T06:40:29;100795.19;;;16.43;100.00
52535;BME280;38443;53.164;5.802;2023-08-06T06:42:54;100788.84;;;17.09;100.00
52535;BME280;38443;53.164;5.802;2023-08-06T06:45:20;100785.78;;;17.15;100.00
52535;BME280;38443;53.164;5.802;2023-08-06T06:47:45;100771.38;;;17.14;100.00
52535;BME280;38443;53.164;5.802;2023-08-06T06:50:10;100765.63;;;17.21;100.00
52535;BME280;38443;53.164;5.802;2023-08-06T06:52:36;100764.50;;;17.09;100.00
52535;BME280;38443;53.164;5.802;2023-08-06T06:55:02;100761.44;;;16.99;100.00
52535;BME280;38443;53.164;5.802;2023-08-06T06:57:27;100764.78;;;16.88;100.00
52535;BME280;38443;53.164;5.802;2023-08-06T06:59:53;100770.06;;;16.74;100.00
52535;BME280;38443;53.164;5.802;2023-08-06T07:02:18;100779.97;;;16.58;100.00
52535;BME280;38443;53.164;5.802;2023-08-06T07:04:43;100761.63;;;16.31;100.00
52535;BME280;38443;53.164;5.802;2023-08-06T07:07:09;100769.75;;;16.13;100.00
52535;BME280;38443;53.164;5.802;2023-08-06T07:09:35;100771.19;;;16.03;100.00
52535;BME280;38443;53.164;5.802;2023-08-06T07:12:00;100791.41;;;15.96;100.00
52535;BME280;38443;53.164;5.802;2023-08-06T07:14:27;100786.00;;;15.96;100.00
52535;BME280;38443;53.164;5.802;2023-08-06T07:16:53;100788.44;;;16.01;100.00
52535;BME280;38443;53.164;5.802;2023-08-06T07:19:19;100797.19;;;16.06;100.00
52535;BME280;38443;53.164;5.802;2023-08-06T07:21:44;100798.66;;;16.11;100.00
52535;BME280;38443;53.164;5.802;2023-08-06T07:24:09;100799.78;;;16.25;100.00
52535;BME280;38443;53.164;5.802;2023-08-06T07:26:35;100790.66;;;16.43;100.00
52535;BME280;38443;53.164;5.802;2023-08-06T07:29:00;100796.53;;;16.67;100.00
52535;BME280;38443;53.164;5.802;2023-08-06T07:31:26;100800.88;;;16.87;100.00
52535;BME280;38443;53.164;5.802;2023-08-06T07:33:51;100796.25;;;17.05;100.00
52535;BME280;38443;53.164;5.802;2023-08-06T07:36:16;100792.94;;;17.16;100.00
52535;BME280;38443;53.164;5.802;2023-08-06T07:38:42;100791.34;;;17.28;100.00
52535;BME280;38443;53.164;5.802;2023-08-06T07:41:08;100799.72;;;17.39;100.00
52535;BME280;38443;53.164;5.802;2023-08-06T07:43:33;100794.63;;;17.49;100.00
52535;BME280;38443;53.164;5.802;2023-08-06T07:46:00;100792.09;;;17.46;100.00
52535;BME280;38443;53.164;5.802;2023-08-06T07:48:26;100791.56;;;17.55;100.00
52535;BME280;38443;53.164;5.802;2023-08-06T07:50:55;100783.97;;;17.46;100.00
52535;BME280;38443;53.164;5.802;2023-08-06T07:53:22;100786.50;;;17.49;100.00
52535;BME280;38443;53.164;5.802;2023-08-06T07:55:51;100775.59;;;17.50;100.00
52535;BME280;38443;53.164;5.802;2023-08-06T07:58:17;100777.56;;;17.63;100.00
52535;BME280;38443;53.164;5.802;2023-08-06T08:00:43;100792.06;;;17.92;100.00
52535;BME280;38443;53.164;5.802;2023-08-06T08:03:11;100784.69;;;18.24;100.00
52535;BME280;38443;53.164;5.802;2023-08-06T08:05:38;100773.09;;;18.37;100.00
52535;BME280;38443;53.164;5.802;2023-08-06T08:08:03;100768.91;;;18.31;100.00
52535;BME280;38443;53.164;5.802;2023-08-06T08:10:29;100764.06;;;18.36;100.00
52535;BME280;38443;53.164;5.802;2023-08-06T08:12:55;100763.88;;;18.39;100.00
52535;BME280;38443;53.164;5.802;2023-08-06T08:15:21;100767.06;;;18.46;100.00
52535;BME280;38443;53.164;5.802;2023-08-06T08:17:46;100763.69;;;18.42;100.00
52535;BME280;38443;53.164;5.802;2023-08-06T08:20:16;100761.47;;;18.20;100.00
52535;BME280;38443;53.164;5.802;2023-08-06T08:22:41;100764.06;;;18.36;100.00
52535;BME280;38443;53.164;5.802;2023-08-06T08:25:07;100750.03;;;18.29;100.00
52535;BME280;38443;53.164;5.802;2023-08-06T08:27:32;100757.38;;;18.42;100.00
52535;BME280;38443;53.164;5.802;2023-08-06T08:29:57;100768.72;;;18.48;100.00
52535;BME280;38443;53.164;5.802;2023-08-06T08:32:23;100757.19;;;18.59;100.00
52535;BME280;38443;53.164;5.802;2023-08-06T08:34:49;100760.19;;;18.69;100.00
52535;BME280;38443;53.164;5.802;2023-08-06T08:37:14;100750.81;;;18.60;100.00
52535;BME280;38443;53.164;5.802;2023-08-06T08:39:39;100753.53;;;18.60;100.00
52535;BME280;38443;53.164;5.802;2023-08-06T08:42:05;100757.47;;;18.69;100.00
52535;BME280;38443;53.164;5.802;2023-08-06T08:44:32;100745.63;;;18.70;100.00
52535;BME280;38443;53.164;5.802;2023-08-06T08:46:59;100751.56;;;18.91;100.00
52535;BME280;38443;53.164;5.802;2023-08-06T08:49:26;100749.84;;;19.30;100.00
52535;BME280;38443;53.164;5.802;2023-08-06T08:51:53;100746.63;;;19.38;100.00
52535;BME280;38443;53.164;5.802;2023-08-06T08:54:21;100744.56;;;19.28;100.00
52535;BME280;38443;53.164;5.802;2023-08-06T08:56:48;100753.06;;;19.22;100.00
52535;BME280;38443;53.164;5.802;2023-08-06T08:59:13;100753.81;;;19.11;100.00
52535;BME280;38443;53.164;5.802;2023-08-06T09:01:39;100758.19;;;19.00;100.00
52535;BME280;38443;53.164;5.802;2023-08-06T09:04:06;100757.91;;;19.04;100.00
52535;BME280;38443;53.164;5.802;2023-08-06T09:06:37;100751.75;;;18.88;100.00
52535;BME280;38443;53.164;5.802;2023-08-06T09:09:09;100748.25;;;18.86;100.00
52535;BME280;38443;53.164;5.802;2023-08-06T09:11:42;100747.19;;;18.74;100.00
52535;BME280;38443;53.164;5.802;2023-08-06T09:14:08;100747.94;;;18.76;100.00
52535;BME280;38443;53.164;5.802;2023-08-06T09:16:37;100752.72;;;18.72;100.00
52535;BME280;38443;53.164;5.802;2023-08-06T09:21:37;100756.97;;;18.77;100.00
52535;BME280;38443;53.164;5.802;2023-08-06T09:24:10;100753.03;;;18.82;100.00
52535;BME280;38443;53.164;5.802;2023-08-06T09:26:44;100763.75;;;18.84;100.00
52535;BME280;38443;53.164;5.802;2023-08-06T09:29:11;100765.22;;;18.89;100.00
52535;BME280;38443;53.164;5.802;2023-08-06T09:31:49;100760.63;;;18.90;100.00
52535;BME280;38443;53.164;5.802;2023-08-06T09:34:19;100754.63;;;18.99;100.00
52535;BME280;38443;53.164;5.802;2023-08-06T09:36:54;100760.19;;;18.83;100.00
52535;BME280;38443;53.164;5.802;2023-08-06T09:39:21;100764.13;;;18.92;100.00
52535;BME280;38443;53.164;5.802;2023-08-06T09:41:47;100776.09;;;19.02;100.00
52535;BME280;38443;53.164;5.802;2023-08-06T09:44:18;100776.22;;;19.01;100.00
52535;BME280;38443;53.164;5.802;2023-08-06T09:46:51;100778.06;;;19.00;100.00
52535;BME280;38443;53.164;5.802;2023-08-06T09:49:41;100781.84;;;18.98;100.00
52535;BME280;38443;53.164;5.802;2023-08-06T09:52:14;100771.31;;;18.93;100.00
52535;BME280;38443;53.164;5.802;2023-08-06T09:54:43;100782.06;;;18.95;100.00
52535;BME280;38443;53.164;5.802;2023-08-06T09:57:08;100780.25;;;19.08;100.00
52535;BME280;38443;53.164;5.802;2023-08-06T09:59:35;100782.94;;;19.22;100.00
52535;BME280;38443;53.164;5.802;2023-08-06T10:02:02;100783.34;;;19.43;100.00
52535;BME280;38443;53.164;5.802;2023-08-06T10:04:31;100775.69;;;19.63;100.00
52535;BME280;38443;53.164;5.802;2023-08-06T10:06:58;100774.13;;;19.73;100.00
52535;BME280;38443;53.164;5.802;2023-08-06T10:09:24;100782.44;;;19.70;100.00
52535;BME280;38443;53.164;5.802;2023-08-06T10:11:51;100786.97;;;19.57;100.00
52535;BME280;38443;53.164;5.802;2023-08-06T10:14:31;100790.28;;;19.35;100.00
52535;BME280;38443;53.164;5.802;2023-08-06T10:16:58;100793.59;;;19.25;100.00
52535;BME280;38443;53.164;5.802;2023-08-06T10:19:25;100786.72;;;18.92;100.00
52535;BME280;38443;53.164;5.802;2023-08-06T10:22:11;100783.91;;;18.51;100.00
52535;BME280;38443;53.164;5.802;2023-08-06T10:24:54;100789.13;;;18.40;100.00
52535;BME280;38443;53.164;5.802;2023-08-06T10:27:21;100790.28;;;18.36;100.00
52535;BME280;38443;53.164;5.802;2023-08-06T10:29:47;100790.22;;;18.23;100.00
52535;BME280;38443;53.164;5.802;2023-08-06T10:32:14;100789.53;;;18.19;100.00
52535;BME280;38443;53.164;5.802;2023-08-06T10:34:59;100795.41;;;18.11;100.00
52535;BME280;38443;53.164;5.802;2023-08-06T10:37:36;100796.78;;;18.19;100.00
52535;BME280;38443;53.164;5.802;2023-08-06T10:40:02;100789.44;;;18.21;100.00
52535;BME280;38443;53.164;5.802;2023-08-06T10:42:29;100796.41;;;18.25;100.00
52535;BME280;38443;53.164;5.802;2023-08-06T10:45:14;100800.66;;;18.14;100.00
52535;BME280;38443;53.164;5.802;2023-08-06T10:47:40;100801.59;;;18.28;100.00
52535;BME280;38443;53.164;5.802;2023-08-06T10:50:24;100795.63;;;18.23;100.00
52535;BME280;38443;53.164;5.802;2023-08-06T10:52:50;100802.50;;;18.28;100.00
52535;BME280;38443;53.164;5.802;2023-08-06T10:55:28;100799.28;;;18.22;100.00
52535;BME280;38443;53.164;5.802;2023-08-06T10:57:54;100806.47;;;18.23;100.00
52535;BME280;38443;53.164;5.802;2023-08-06T11:00:22;100807.41;;;18.22;100.00
52535;BME280;38443;53.164;5.802;2023-08-06T11:02:49;100806.75;;;18.18;100.00
52535;BME280;38443;53.164;5.802;2023-08-06T11:05:15;100807.31;;;18.09;100.00
52535;BME280;38443;53.164;5.802;2023-08-06T11:07:41;100814.97;;;18.17;100.00
52535;BME280;38443;53.164;5.802;2023-08-06T11:10:09;100816.00;;;18.14;100.00
52535;BME280;38443;53.164;5.802;2023-08-06T11:12:35;100808.25;;;18.08;100.00
52535;BME280;38443;53.164;5.802;2023-08-06T11:15:01;100802.97;;;18.06;100.00
52535;BME280;38443;53.164;5.802;2023-08-06T11:17:29;100809.53;;;18.02;100.00
52535;BME280;38443;53.164;5.802;2023-08-06T11:19:55;100807.19;;;17.96;100.00
52535;BME280;38443;53.164;5.802;2023-08-06T11:22:21;100810.84;;;17.95;100.00
52535;BME280;38443;53.164;5.802;2023-08-06T11:24:48;100800.03;;;17.95;100.00
52535;BME280;38443;53.164;5.802;2023-08-06T11:27:14;100804.50;;;17.96;100.00
52535;BME280;38443;53.164;5.802;2023-08-06T11:29:44;100802.56;;;17.98;100.00
52535;BME280;38443;53.164;5.802;2023-08-06T11:32:10;100801.03;;;18.08;100.00
52535;BME280;38443;53.164;5.802;2023-08-06T11:34:36;100806.31;;;18.10;100.00
52535;BME280;38443;53.164;5.802;2023-08-06T11:37:06;100806.72;;;18.04;100.00
52535;BME280;38443;53.164;5.802;2023-08-06T11:39:35;100810.97;;;18.08;100.00
52535;BME280;38443;53.164;5.802;2023-08-06T11:42:05;100810.59;;;18.14;100.00
52535;BME280;38443;53.164;5.802;2023-08-06T11:44:32;100812.25;;;18.17;100.00
52535;BME280;38443;53.164;5.802;2023-08-06T11:46:58;100804.50;;;18.10;100.00
52535;BME280;38443;53.164;5.802;2023-08-06T11:49:46;100804.91;;;18.04;100.00
52535;BME280;38443;53.164;5.802;2023-08-06T11:52:22;100799.09;;;18.10;100.00
52535;BME280;38443;53.164;5.802;2023-08-06T11:55:05;100807.31;;;18.23;100.00
52535;BME280;38443;53.164;5.802;2023-08-06T11:57:36;100804.72;;;18.36;100.00
52535;BME280;38443;53.164;5.802;2023-08-06T12:00:09;100802.81;;;18.38;100.00
52535;BME280;38443;53.164;5.802;2023-08-06T12:02:35;100807.16;;;18.41;100.00
52535;BME280;38443;53.164;5.802;2023-08-06T12:07:39;100794.16;;;18.46;100.00
52535;BME280;38443;53.164;5.802;2023-08-06T12:10:05;100803.97;;;18.48;100.00
52535;BME280;38443;53.164;5.802;2023-08-06T12:12:30;100805.50;;;18.52;100.00
52535;BME280;38443;53.164;5.802;2023-08-06T12:14:56;100795.94;;;18.47;100.00
52535;BME280;38443;53.164;5.802;2023-08-06T12:17:22;100804.22;;;18.44;100.00
52535;BME280;38443;53.164;5.802;2023-08-06T12:19:48;100810.56;;;18.44;100.00
52535;BME280;38443;53.164;5.802;2023-08-06T12:22:14;100798.72;;;18.45;100.00
52535;BME280;38443;53.164;5.802;2023-08-06T12:24:43;100797.66;;;18.48;100.00
52535;BME280;38443;53.164;5.802;2023-08-06T12:27:10;100800.47;;;18.61;100.00
52535;BME280;38443;53.164;5.802;2023-08-06T12:29:35;100807.91;;;18.71;100.00
52535;BME280;38443;53.164;5.802;2023-08-06T12:32:01;100805.97;;;18.73;100.00
52535;BME280;38443;53.164;5.802;2023-08-06T12:34:27;100813.16;;;18.74;100.00
52535;BME280;38443;53.164;5.802;2023-08-06T12:36:52;100802.41;;;18.73;100.00
52535;BME280;38443;53.164;5.802;2023-08-06T12:39:18;100811.47;;;18.72;100.00
52535;BME280;38443;53.164;5.802;2023-08-06T12:41:43;100813.53;;;18.68;100.00
52535;BME280;38443;53.164;5.802;2023-08-06T12:44:11;100809.00;;;18.69;100.00
52535;BME280;38443;53.164;5.802;2023-08-06T12:46:37;100819.63;;;18.72;100.00